createdAt,value
2018-08-30T00:01:10.201Z,67.90
2018-08-30T00:03:38.675Z,68.30
2018-08-30T00:06:07.222Z,68.40
2018-08-30T00:08:35.731Z,68.10
2018-08-30T00:11:04.529Z,68.00
2018-08-30T00:13:33.020Z,68.40
2018-08-30T00:16:01.560Z,68.70
2018-08-30T00:18:30.193Z,68.30
2018-08-30T00:20:58.634Z,68.50
2018-08-30T00:23:27.171Z,68.60
2018-08-30T00:25:55.700Z,68.90
2018-08-30T00:28:24.184Z,69.00
2018-08-30T00:30:52.736Z,69.40
2018-08-30T00:33:21.299Z,69.40
2018-08-30T00:35:50.673Z,68.70
2018-08-30T00:38:19.248Z,68.60
2018-08-30T00:40:47.789Z,68.80
2018-08-30T00:43:16.362Z,68.40
2018-08-30T00:45:44.834Z,68.00
2018-08-30T00:48:14.324Z,68.00
2018-08-30T00:50:42.949Z,68.30
2018-08-30T00:53:11.591Z,68.30
2018-08-30T00:55:40.143Z,68.00
2018-08-30T00:58:08.688Z,68.20
2018-08-30T01:00:37.679Z,67.60
2018-08-30T01:03:06.242Z,67.90
2018-08-30T01:05:35.009Z,68.20
2018-08-30T01:08:03.668Z,68.10
2018-08-30T01:10:33.273Z,68.20
2018-08-30T01:13:01.855Z,68.00
2018-08-30T01:15:30.372Z,67.70
2018-08-30T01:17:58.849Z,67.90
2018-08-30T01:20:27.635Z,68.20
2018-08-30T01:22:56.187Z,68.00
2018-08-30T01:25:25.284Z,67.90
2018-08-30T01:27:53.898Z,67.90
2018-08-30T01:30:22.534Z,67.40
2018-08-30T01:32:51.133Z,68.00
2018-08-30T01:35:19.680Z,68.50
2018-08-30T01:37:48.250Z,68.50
2018-08-30T01:40:16.824Z,68.50
2018-08-30T01:42:46.357Z,68.70
2018-08-30T01:45:14.935Z,68.70
2018-08-30T01:47:43.465Z,68.20
2018-08-30T01:50:12.071Z,68.00
2018-08-30T01:52:40.621Z,68.20
2018-08-30T01:55:09.284Z,68.40
2018-08-30T01:57:37.788Z,68.30
2018-08-30T02:00:06.421Z,68.60
2018-08-30T02:02:34.890Z,68.30
2018-08-30T02:05:03.432Z,68.10
2018-08-30T02:07:31.927Z,68.30
2018-08-30T02:10:00.459Z,68.10
2018-08-30T02:12:28.944Z,67.80
2018-08-30T02:14:57.473Z,68.30
2018-08-30T02:17:26.031Z,68.20
2018-08-30T02:19:54.544Z,67.90
2018-08-30T02:22:23.140Z,68.00
2018-08-30T02:24:51.649Z,67.80
2018-08-30T02:27:20.243Z,67.90
2018-08-30T02:29:48.760Z,67.90
2018-08-30T02:32:17.252Z,67.70
2018-08-30T02:34:45.705Z,67.70
2018-08-30T02:37:14.967Z,67.70
2018-08-30T02:39:43.456Z,67.60
2018-08-30T02:42:11.936Z,67.60
2018-08-30T02:44:40.500Z,67.90
2018-08-30T02:47:09.071Z,67.70
2018-08-30T02:49:37.599Z,67.90
2018-08-30T02:52:06.140Z,67.30
2018-08-30T02:54:34.640Z,67.30
2018-08-30T02:57:03.089Z,67.10
2018-08-30T02:59:31.543Z,67.40
2018-08-30T03:02:00.099Z,67.60
2018-08-30T03:04:28.600Z,67.50
2018-08-30T03:06:57.223Z,67.30
2018-08-30T03:09:25.875Z,67.20
2018-08-30T03:11:54.485Z,67.30
2018-08-30T03:14:23.055Z,67.60
2018-08-30T03:16:51.702Z,67.30
2018-08-30T03:19:20.265Z,67.60
2018-08-30T03:21:48.784Z,67.80
2018-08-30T03:24:17.239Z,68.10
2018-08-30T03:26:45.730Z,67.80
2018-08-30T03:29:14.277Z,67.80
2018-08-30T03:31:42.804Z,67.80
2018-08-30T03:34:11.448Z,67.60
2018-08-30T03:36:40.033Z,67.90
2018-08-30T03:39:08.578Z,67.70
2018-08-30T03:41:37.100Z,67.80
2018-08-30T03:44:07.639Z,67.90
2018-08-30T03:46:36.191Z,67.80
2018-08-30T03:49:05.002Z,67.70
2018-08-30T03:51:33.486Z,67.50
2018-08-30T03:54:02.036Z,67.60
2018-08-30T03:56:31.547Z,67.40
2018-08-30T03:59:00.049Z,67.60
2018-08-30T04:01:28.687Z,67.70
2018-08-30T04:03:57.224Z,67.40
2018-08-30T04:06:25.853Z,67.60
2018-08-30T04:08:54.424Z,67.70
2018-08-30T04:11:22.887Z,68.00
2018-08-30T04:13:51.620Z,67.80
2018-08-30T04:16:20.363Z,68.10
2018-08-30T04:18:53.113Z,68.30
2018-08-30T04:21:21.597Z,68.50
2018-08-30T04:23:50.139Z,68.30
2018-08-30T04:26:19.691Z,68.00
2018-08-30T04:28:48.211Z,68.00
2018-08-30T04:31:17.444Z,68.50
2018-08-30T04:33:45.983Z,68.20
2018-08-30T04:36:14.505Z,68.20
2018-08-30T04:38:43.007Z,68.00
2018-08-30T04:41:11.567Z,67.90
2018-08-30T04:43:40.082Z,68.10
2018-08-30T04:46:08.710Z,68.20
2018-08-30T04:48:37.889Z,68.30
2018-08-30T04:51:06.514Z,68.30
2018-08-30T04:53:35.131Z,68.20
2018-08-30T04:56:03.685Z,68.20
2018-08-30T04:58:32.711Z,68.10
2018-08-30T05:01:01.213Z,67.90
2018-08-30T05:03:29.795Z,67.70
2018-08-30T05:05:58.351Z,67.30
2018-08-30T05:08:27.074Z,67.20
2018-08-30T05:10:55.688Z,67.40
2018-08-30T05:13:24.369Z,67.10
2018-08-30T05:15:53.028Z,67.10
2018-08-30T05:18:21.563Z,67.30
2018-08-30T05:20:50.114Z,67.30
2018-08-30T05:23:18.619Z,66.80
2018-08-30T05:25:47.154Z,66.90
2018-08-30T05:28:15.738Z,66.50
2018-08-30T05:30:45.108Z,66.50
2018-08-30T05:33:13.620Z,66.30
2018-08-30T05:36:00.232Z,66.20
2018-08-30T05:38:28.775Z,66.20
2018-08-30T05:40:57.634Z,66.00
2018-08-30T05:43:26.188Z,65.80
2018-08-30T05:45:57.098Z,66.00
2018-08-30T05:48:28.143Z,65.80
2018-08-30T05:50:56.702Z,65.60
2018-08-30T05:53:25.383Z,65.30
2018-08-30T05:55:53.954Z,65.70
2018-08-30T05:58:22.780Z,65.70
2018-08-30T06:00:51.274Z,65.70
2018-08-30T06:03:19.864Z,65.30
2018-08-30T06:05:48.394Z,66.00
2018-08-30T06:08:16.985Z,66.00
2018-08-30T06:10:45.473Z,65.50
2018-08-30T06:13:14.170Z,65.10
2018-08-30T06:15:43.234Z,64.90
2018-08-30T06:18:12.653Z,64.90
2018-08-30T06:20:41.304Z,65.20
2018-08-30T06:23:09.861Z,64.90
2018-08-30T06:25:38.443Z,65.10
2018-08-30T06:28:07.163Z,64.90
2018-08-30T06:30:35.869Z,65.20
2018-08-30T06:33:10.065Z,65.40
2018-08-30T06:35:39.776Z,65.30
2018-08-30T06:38:16.200Z,65.40
2018-08-30T06:40:46.129Z,65.70
2018-08-30T06:43:14.701Z,65.40
2018-08-30T06:45:43.143Z,65.40
2018-08-30T06:48:11.937Z,65.40
2018-08-30T06:50:41.224Z,65.00
2018-08-30T06:53:09.869Z,64.50
2018-08-30T06:55:38.531Z,64.30
2018-08-30T06:58:07.043Z,64.20
2018-08-30T07:00:36.968Z,64.00
2018-08-30T07:03:06.001Z,63.60
2018-08-30T07:05:34.607Z,63.90
2018-08-30T07:08:03.291Z,63.70
2018-08-30T07:10:33.078Z,63.60
2018-08-30T07:13:02.815Z,63.70
2018-08-30T07:15:31.721Z,64.00
2018-08-30T07:18:00.587Z,64.30
2018-08-30T07:20:29.184Z,63.60
2018-08-30T07:22:57.693Z,63.40
2018-08-30T07:25:26.260Z,63.00
2018-08-30T07:27:54.948Z,62.80
2018-08-30T07:30:23.649Z,62.80
2018-08-30T07:32:52.346Z,62.70
2018-08-30T07:35:21.288Z,62.80
2018-08-30T07:37:50.581Z,62.40
2018-08-30T07:40:19.302Z,62.70
2018-08-30T07:42:48.018Z,62.20
2018-08-30T07:45:16.539Z,61.90
2018-08-30T07:47:45.052Z,62.00
2018-08-30T07:50:13.577Z,61.00
2018-08-30T07:52:42.156Z,61.00
2018-08-30T07:55:10.727Z,60.10
2018-08-30T07:57:40.312Z,59.50
2018-08-30T08:00:09.003Z,58.80
2018-08-30T08:02:37.481Z,58.10
2018-08-30T08:05:06.382Z,57.90
2018-08-30T08:07:35.065Z,57.50
2018-08-30T08:10:03.689Z,57.00
2018-08-30T08:12:32.371Z,56.60
2018-08-30T08:15:00.952Z,56.90
2018-08-30T08:17:29.557Z,56.80
2018-08-30T08:20:00.264Z,57.10
2018-08-30T08:22:28.969Z,56.80
2018-08-30T08:24:57.502Z,57.20
2018-08-30T08:27:26.436Z,57.60
2018-08-30T08:29:54.992Z,58.00
2018-08-30T08:32:23.573Z,57.40
2018-08-30T08:34:52.137Z,57.00
2018-08-30T08:37:27.189Z,57.60
2018-08-30T08:39:57.035Z,57.10
2018-08-30T08:42:30.948Z,56.40
2018-08-30T08:45:00.593Z,55.70
2018-08-30T08:47:29.395Z,55.90
2018-08-30T08:49:58.438Z,55.60
2018-08-30T08:52:29.477Z,53.90
2018-08-30T08:54:58.119Z,54.50
2018-08-30T08:57:27.159Z,53.80
2018-08-30T08:59:55.837Z,53.50
2018-08-30T09:02:25.165Z,52.90
2018-08-30T09:04:54.306Z,52.90
2018-08-30T09:07:23.112Z,52.50
2018-08-30T09:12:42.998Z,53.00
2018-08-30T09:15:20.601Z,52.30
2018-08-30T09:17:49.363Z,51.50
2018-08-30T09:20:18.197Z,52.10
2018-08-30T09:22:47.084Z,51.80
2018-08-30T09:25:16.116Z,51.60
2018-08-30T09:27:44.782Z,51.20
2018-08-30T09:30:13.593Z,50.70
2018-08-30T09:32:43.005Z,49.70
2018-08-30T09:35:11.561Z,49.70
2018-08-30T09:37:40.076Z,49.90
2018-08-30T09:40:09.047Z,50.60
2018-08-30T09:42:37.777Z,51.00
2018-08-30T09:45:06.828Z,51.20
2018-08-30T09:47:35.537Z,50.90
2018-08-30T09:50:04.495Z,50.60
2018-08-30T09:52:33.927Z,50.70
2018-08-30T09:55:04.447Z,51.10
2018-08-30T09:57:36.228Z,50.90
2018-08-30T10:00:05.791Z,50.20
2018-08-30T10:02:37.214Z,50.30
2018-08-30T10:05:07.746Z,49.50
2018-08-30T10:07:37.982Z,48.30
2018-08-30T10:10:09.157Z,47.30
2018-08-30T10:12:38.711Z,47.30
2018-08-30T10:15:07.801Z,46.50
2018-08-30T10:17:37.881Z,46.40
2018-08-30T10:20:07.249Z,46.50
2018-08-30T10:22:37.207Z,46.30
2018-08-30T10:25:06.326Z,45.60
2018-08-30T10:27:35.796Z,45.30
2018-08-30T10:30:17.073Z,45.40
2018-08-30T10:32:49.822Z,44.50
2018-08-30T10:36:12.827Z,44.50
2018-08-30T10:38:42.232Z,43.30
2018-08-30T10:41:12.853Z,42.70
2018-08-30T10:43:41.531Z,43.30
2018-08-30T10:46:11.728Z,43.30
2018-08-30T10:48:44.163Z,42.70
2018-08-30T10:51:16.865Z,42.90
2018-08-30T10:53:45.589Z,43.00
2018-08-30T10:56:15.511Z,43.90
2018-08-30T10:58:47.918Z,44.00
2018-08-30T11:01:21.981Z,44.20
2018-08-30T11:04:01.964Z,43.10
2018-08-30T11:06:34.863Z,41.90
2018-08-30T11:09:10.390Z,42.10
2018-08-30T11:11:41.172Z,42.10
2018-08-30T11:14:17.380Z,42.20
2018-08-30T11:16:46.487Z,42.50
2018-08-30T11:19:15.452Z,41.90
2018-08-30T11:21:44.346Z,41.90
2018-08-30T11:24:13.210Z,40.80
2018-08-30T11:26:42.287Z,40.40
2018-08-30T11:29:11.332Z,41.20
2018-08-30T11:31:40.193Z,41.90
2018-08-30T11:34:09.987Z,42.60
2018-08-30T11:36:39.151Z,41.70
2018-08-30T11:39:09.049Z,42.20
2018-08-30T11:41:39.693Z,40.80
2018-08-30T11:44:09.141Z,40.20
2018-08-30T11:46:40.148Z,39.80
2018-08-30T11:49:10.088Z,39.70
2018-08-30T11:51:42.174Z,39.70
2018-08-30T11:54:12.019Z,39.80
2018-08-30T11:56:48.627Z,39.50
2018-08-30T11:59:19.026Z,40.10
2018-08-30T12:01:47.805Z,40.20
2018-08-30T12:04:26.223Z,40.50
2018-08-30T12:06:56.376Z,41.20
2018-08-30T12:09:25.767Z,40.70
2018-08-30T12:11:56.965Z,40.90
2018-08-30T12:14:27.281Z,40.70
2018-08-30T12:16:58.332Z,40.90
2018-08-30T12:19:27.668Z,41.30
2018-08-30T12:21:56.708Z,41.70
2018-08-30T12:24:27.228Z,41.40
2018-08-30T12:26:57.759Z,41.40
2018-08-30T12:29:30.775Z,41.20
2018-08-30T12:31:59.851Z,40.10
2018-08-30T12:34:30.680Z,39.90
2018-08-30T12:37:00.193Z,39.70
2018-08-30T12:39:30.063Z,40.00
2018-08-30T12:41:58.992Z,39.90
2018-08-30T12:44:28.241Z,39.90
2018-08-30T12:46:57.815Z,39.70
2018-08-30T12:49:27.744Z,39.60
2018-08-30T12:51:58.940Z,39.70
2018-08-30T12:54:28.308Z,39.30
2018-08-30T12:56:56.954Z,39.60
2018-08-30T12:59:32.148Z,39.30
2018-08-30T13:02:00.791Z,39.50
2018-08-30T13:04:29.420Z,39.50
2018-08-30T13:06:58.065Z,39.50
2018-08-30T13:09:27.867Z,40.20
2018-08-30T13:11:58.439Z,38.90
2018-08-30T13:14:27.169Z,38.30
2018-08-30T13:16:55.893Z,38.20
2018-08-30T13:19:24.586Z,38.10
2018-08-30T13:21:53.113Z,38.60
2018-08-30T13:24:21.855Z,38.80
2018-08-30T13:26:50.235Z,38.80
2018-08-30T13:29:18.830Z,38.10
2018-08-30T13:31:47.504Z,38.30
2018-08-30T13:34:16.318Z,38.00
2018-08-30T13:36:44.828Z,37.40
2018-08-30T13:39:13.782Z,36.80
2018-08-30T13:41:42.704Z,36.60
2018-08-30T13:44:12.550Z,35.60
2018-08-30T13:46:41.855Z,35.80
2018-08-30T13:49:11.570Z,35.70
2018-08-30T13:51:40.398Z,36.20
2018-08-30T13:54:10.041Z,36.50
2018-08-30T13:56:38.623Z,36.50
2018-08-30T13:59:07.138Z,37.00
2018-08-30T14:01:36.602Z,37.10
2018-08-30T14:04:07.135Z,37.40
2018-08-30T14:06:36.835Z,36.50
2018-08-30T14:09:06.172Z,36.30
2018-08-30T14:11:34.985Z,37.00
2018-08-30T14:14:05.904Z,37.20
2018-08-30T14:16:36.311Z,37.30
2018-08-30T14:19:07.727Z,36.10
2018-08-30T14:21:36.916Z,36.40
2018-08-30T14:24:06.160Z,35.50
2018-08-30T14:26:34.877Z,34.60
2018-08-30T14:29:03.577Z,34.80
2018-08-30T14:31:32.219Z,34.50
2018-08-30T14:34:01.149Z,33.80
2018-08-30T14:36:29.839Z,34.40
2018-08-30T14:38:58.376Z,33.60
2018-08-30T14:41:26.943Z,33.40
2018-08-30T14:43:55.684Z,33.30
2018-08-30T14:46:24.256Z,33.30
2018-08-30T14:48:52.800Z,33.80
2018-08-30T14:51:21.360Z,33.90
2018-08-30T14:53:52.181Z,34.60
2018-08-30T14:56:18.505Z,35.20
2018-08-30T14:58:47.157Z,35.50
2018-08-30T15:01:15.680Z,35.30
2018-08-30T15:03:44.241Z,35.80
2018-08-30T15:06:12.930Z,35.90
2018-08-30T15:08:41.779Z,36.10
2018-08-30T15:11:10.289Z,36.20
2018-08-30T15:13:38.875Z,35.80
2018-08-30T15:16:08.677Z,35.90
2018-08-30T15:18:37.232Z,36.00
2018-08-30T15:21:05.881Z,36.00
2018-08-30T15:23:36.366Z,35.90
2018-08-30T15:26:06.067Z,35.20
2018-08-30T15:28:38.403Z,34.80
2018-08-30T15:31:07.005Z,34.50
2018-08-30T15:33:35.595Z,34.30
2018-08-30T15:36:05.019Z,34.40
2018-08-30T15:38:35.719Z,34.60
2018-08-30T15:41:04.430Z,34.30
2018-08-30T15:43:32.988Z,34.50
2018-08-30T15:46:01.525Z,35.00
2018-08-30T15:48:31.403Z,34.70
2018-08-30T15:51:00.025Z,34.80
2018-08-30T15:53:28.768Z,34.80
2018-08-30T15:59:07.109Z,35.10
2018-08-30T16:01:35.660Z,35.00
2018-08-30T16:09:05.971Z,35.00
2018-08-30T16:11:46.742Z,35.00
2018-08-30T16:14:15.404Z,35.00
2018-08-30T16:28:33.551Z,35.10
2018-08-30T16:31:02.650Z,35.30
2018-08-30T16:33:31.431Z,36.50
2018-08-30T16:36:00.080Z,36.40
2018-08-30T16:38:28.779Z,37.10
2018-08-30T16:41:01.160Z,37.20
2018-08-30T16:46:37.338Z,36.50
2018-08-30T16:49:06.247Z,36.30
2018-08-30T16:51:39.391Z,35.80
2018-08-30T16:54:09.901Z,36.10
2018-08-30T16:56:44.557Z,35.50
2018-08-30T16:59:14.243Z,35.50
2018-08-30T17:01:42.752Z,34.90
2018-08-30T17:04:11.996Z,34.80
2018-08-30T17:06:40.592Z,35.40
2018-08-30T17:09:13.645Z,35.00
2018-08-30T17:11:43.250Z,35.00
2018-08-30T17:14:15.491Z,35.20
2018-08-30T17:16:44.313Z,34.70
2018-08-30T17:19:45.593Z,34.70
2018-08-30T17:22:16.480Z,34.10
2018-08-30T17:24:45.323Z,34.40
2018-08-30T17:27:13.873Z,34.40
2018-08-30T17:29:42.517Z,34.30
2018-08-30T17:32:11.288Z,34.30
2018-08-30T17:35:03.908Z,34.20
2018-08-30T17:37:32.474Z,34.30
2018-08-30T17:40:01.253Z,35.00
2018-08-30T17:42:29.703Z,34.90
2018-08-30T17:44:58.340Z,35.60
2018-08-30T17:47:27.007Z,36.10
2018-08-30T17:49:55.568Z,36.00
2018-08-30T17:52:26.213Z,36.00
2018-08-30T17:54:55.727Z,36.10
2018-08-30T17:57:24.310Z,36.20
2018-08-30T17:59:52.884Z,36.60
2018-08-30T18:02:21.512Z,37.00
2018-08-30T18:04:50.138Z,37.30
2018-08-30T18:07:19.649Z,37.50
2018-08-30T18:09:52.256Z,37.60
2018-08-30T18:12:20.856Z,37.80
2018-08-30T18:14:49.522Z,38.20
2018-08-30T18:17:18.334Z,38.10
2018-08-30T18:19:47.001Z,38.20
2018-08-30T18:22:16.816Z,38.40
2018-08-30T18:24:45.381Z,38.60
2018-08-30T18:27:13.937Z,38.60
2018-08-30T18:29:42.658Z,38.80
2018-08-30T18:32:11.373Z,39.00
2018-08-30T18:34:44.797Z,39.30
2018-08-30T18:37:13.415Z,39.50
2018-08-30T18:42:51.545Z,39.80
2018-08-30T18:45:21.192Z,39.90
2018-08-30T18:47:50.409Z,40.00
2018-08-30T18:50:18.985Z,41.10
2018-08-30T18:52:47.620Z,40.60
2018-08-30T18:55:16.439Z,40.50
2018-08-30T18:57:45.186Z,40.90
2018-08-30T19:00:13.668Z,40.90
2018-08-30T19:02:45.537Z,40.80
2018-08-30T19:05:14.023Z,41.00
2018-08-30T19:07:42.521Z,41.20
2018-08-30T19:10:39.349Z,41.50
2018-08-30T19:13:29.394Z,41.60
2018-08-30T19:19:20.983Z,41.80
2018-08-30T19:21:50.007Z,42.00
2018-08-30T19:24:23.718Z,42.30
2018-08-30T19:26:57.375Z,42.50
2018-08-30T19:29:30.781Z,42.60
2018-08-30T19:32:01.673Z,42.60
2018-08-30T19:34:30.536Z,42.70
2018-08-30T19:37:09.542Z,42.90
2018-08-30T19:39:51.034Z,43.00
2018-08-30T19:42:19.633Z,43.30
2018-08-30T19:44:48.194Z,43.60
2018-08-30T19:47:16.702Z,43.80
2018-08-30T19:49:45.585Z,43.90
2018-08-30T19:52:14.106Z,44.30
2018-08-30T19:54:42.660Z,44.30
2018-08-30T19:57:50.113Z,44.50
2018-08-30T20:00:18.782Z,44.50
2018-08-30T20:02:47.250Z,44.70
2018-08-30T20:05:15.912Z,45.10
2018-08-30T20:07:44.563Z,45.20
2018-08-30T20:10:13.148Z,45.40
2018-08-30T20:12:41.888Z,45.40
2018-08-30T20:15:10.524Z,45.50
2018-08-30T20:17:39.028Z,45.80
2018-08-30T20:20:08.267Z,45.80
2018-08-30T20:25:35.829Z,46.00
2018-08-30T20:28:05.428Z,46.20
2018-08-30T20:30:36.861Z,46.40
2018-08-30T20:33:06.689Z,46.50
2018-08-30T20:35:36.511Z,46.50
2018-08-30T20:38:09.359Z,46.80
2018-08-30T20:40:42.721Z,46.90
2018-08-30T20:43:12.305Z,47.10
2018-08-30T20:48:36.732Z,47.60
2018-08-30T20:51:05.493Z,48.00
2018-08-30T20:53:35.138Z,48.40
2018-08-30T20:56:03.740Z,48.70
2018-08-30T20:58:32.475Z,48.70
2018-08-30T21:01:01.149Z,48.70
2018-08-30T21:03:29.790Z,48.70
2018-08-30T21:05:58.529Z,48.70
2018-08-30T21:08:30.170Z,48.80
2018-08-30T21:10:58.785Z,49.00
2018-08-30T21:13:27.460Z,49.00
2018-08-30T21:15:57.048Z,49.40
2018-08-30T21:18:25.653Z,49.50
2018-08-30T21:21:13.793Z,49.70
2018-08-30T21:23:50.606Z,49.80
2018-08-30T21:26:20.519Z,49.80
2018-08-30T21:28:54.560Z,49.90
2018-08-30T21:31:24.487Z,49.90
2018-08-30T21:33:54.899Z,50.00
2018-08-30T21:36:23.632Z,50.10
2018-08-30T21:38:52.288Z,50.30
2018-08-30T21:41:59.195Z,50.70
2018-08-30T21:44:27.917Z,50.80
2018-08-30T21:46:56.538Z,51.00
2018-08-30T21:49:25.164Z,51.20
2018-08-30T21:51:53.815Z,51.40
2018-08-30T21:54:23.277Z,51.50
2018-08-30T21:56:52.859Z,51.40
2018-08-30T21:59:22.324Z,51.50
2018-08-30T22:01:57.274Z,51.60
2018-08-30T22:04:30.538Z,51.60
2018-08-30T22:07:04.231Z,51.90
2018-08-30T22:10:08.010Z,51.70
2018-08-30T22:12:41.183Z,51.90
2018-08-30T22:15:09.781Z,52.00
2018-08-30T22:20:32.222Z,52.30
2018-08-30T22:23:00.746Z,52.30
2018-08-30T22:25:30.186Z,52.30
2018-08-30T22:27:58.747Z,52.50
2018-08-30T22:30:27.281Z,52.60
2018-08-30T22:32:55.790Z,52.60
2018-08-30T22:35:24.407Z,52.60
2018-08-30T22:37:53.073Z,52.70
2018-08-30T22:40:21.618Z,52.80
2018-08-30T22:42:50.046Z,52.80
2018-08-30T22:45:18.876Z,53.10
2018-08-30T22:47:47.444Z,53.10
2018-08-30T22:50:16.036Z,53.20
2018-08-30T22:52:45.279Z,53.40
2018-08-30T22:55:15.468Z,53.40
2018-08-30T22:57:44.224Z,53.50
2018-08-30T23:00:12.863Z,53.60
2018-08-30T23:02:41.421Z,53.70
2018-08-30T23:05:10.014Z,53.60
2018-08-30T23:07:38.765Z,53.60
2018-08-30T23:10:07.552Z,53.60
2018-08-30T23:12:36.869Z,53.70
2018-08-30T23:15:06.252Z,53.80
2018-08-30T23:17:34.864Z,53.80
2018-08-30T23:20:03.612Z,53.80
2018-08-30T23:22:33.134Z,53.90
2018-08-30T23:25:01.746Z,54.00
2018-08-30T23:27:31.250Z,54.00
2018-08-30T23:29:59.937Z,54.00
2018-08-30T23:32:28.894Z,53.80
2018-08-30T23:34:57.400Z,54.00
2018-08-30T23:37:26.393Z,54.00
2018-08-30T23:39:55.049Z,54.10
2018-08-30T23:42:23.567Z,54.30
2018-08-30T23:44:52.119Z,54.40
2018-08-30T23:47:20.716Z,54.50
2018-08-30T23:49:49.321Z,54.50
2018-08-30T23:52:17.934Z,54.60
2018-08-30T23:54:46.469Z,54.70
2018-08-30T23:57:15.757Z,54.70
2018-08-30T23:59:55.222Z,54.70
